Flight Track Log - Related Links

Times and Time Zones

All times are in EDT time to prevent confusion due to time zone crossing. See the N10WN flight status page for this flight to view local times or setup timezone preferences in your user account.

Time Position Orientation Groundspeed Altitude Reporting Facility
EDT Latitude Longitude Course Direction KTS MPH feet Rate Location/Type
Fri 04:08:38 PM 30.8261 -95.1158 324° Northwest 102 117 5,600  Level Houston Center
Fri 04:09:41 PM 30.8467 -95.1333 324° Northwest 98 113 6,100 528 Climbing Houston Center
Fri 04:10:43 PM 30.8708 -95.1514 327° Northwest 98 113 6,700 726 Climbing Houston Center
Fri 04:11:45 PM 30.8978 -95.1725 326° Northwest 100 115 7,600 677 Climbing Houston Center
Fri 04:12:47 PM 30.9178 -95.1908 322° Northwest 96 110 8,100 242 Climbing Houston Center
Fri 04:13:49 PM 30.9500 -95.2133 329° Northwest 133 153 8,100 -48 Level Houston Center
Fri 04:14:51 PM 30.9850 -95.2389 328° Northwest 144 166 8,000 -48 Descending Houston Center
Fri 04:15:54 PM 31.0181 -95.2664 325° Northwest 147 169 8,000 48 Level Houston Center
Fri 04:16:56 PM 31.0508 -95.2933 325° Northwest 146 168 8,100 48 Climbing Houston Center
Fri 04:17:58 PM 31.0911 -95.3244 327° Northwest 146 168 8,100  Level Houston Center
Fri 04:19:00 PM 31.1250 -95.3492 328° Northwest 146 168 8,100 -48 Level Houston Center
Fri 04:20:02 PM 31.1583 -95.3753 326° Northwest 146 168 8,000  Descending Houston Center
Fri 04:21:05 PM 31.1911 -95.4031 324° Northwest 145 167 8,100 48 Climbing Houston Center
Fri 04:22:07 PM 31.2242 -95.4292 326° Northwest 145 167 8,100  Level Houston Center
Fri 04:23:09 PM 31.2578 -95.4572 324° Northwest 145 167 8,100  Level Houston Center
Fri 04:24:11 PM 31.2981 -95.4889 326° Northwest 146 168 8,100  Level Houston Center
Fri 04:25:13 PM 31.3317 -95.5156 326° Northwest 146 168 8,100  Level Houston Center
Fri 04:26:16 PM 31.3650 -95.5428 325° Northwest 146 168 8,100 -48 Level Houston Center
Fri 04:27:18 PM 31.3981 -95.5719 323° Northwest 146 168 8,000  Descending Houston Center
Fri 04:28:20 PM 31.4314 -95.5997 325° Northwest 146 168 8,100 48 Climbing Houston Center
Fri 04:29:22 PM 31.4653 -95.6261 326° Northwest 146 168 8,100  Level Houston Center
Fri 04:30:24 PM 31.5058 -95.6594 325° Northwest 146 168 8,100 -48 Level Houston Center
Fri 04:31:26 PM 31.5403 -95.6864 326° Northwest 146 168 8,000 -48 Descending Houston Center
Fri 04:32:29 PM 31.5756 -95.7136 327° Northwest 148 170 8,000 48 Level Houston Center
Fri 04:33:31 PM 31.6081 -95.7414 324° Northwest 148 170 8,100 48 Climbing Houston Center
Fri 04:34:33 PM 31.6400 -95.7686 324° Northwest 146 168 8,100  Level Houston Center
Fri 04:35:35 PM 31.6733 -95.7961 325° Northwest 146 168 8,100  Level Houston Center
Fri 04:36:37 PM 31.7153 -95.8289 326° Northwest 147 169 8,100  Level Houston Center
Fri 04:37:40 PM 31.7483 -95.8583 323° Northwest 147 169 8,100  Level Houston Center
Fri 04:38:42 PM 31.7831 -95.8861 326° Northwest 148 170 8,100  Level Houston Center
Fri 04:39:44 PM 31.8169 -95.9122 327° Northwest 148 170 8,100  Level Houston Center
Fri 04:40:46 PM 31.8500 -95.9400 324° Northwest 147 169 8,100  Level Houston Center
Fri 04:42:07 PM 31.9003 -95.9792 327° Northwest 148 170 8,100  Level Fort Worth Center
Fri 04:43:09 PM 31.9347 -96.0081 325° Northwest 148 170 8,100  Level Fort Worth Center
Fri 04:44:12 PM 31.9653 -96.0328 326° Northwest 148 170 8,100  Level Fort Worth Center
Fri 04:45:14 PM 32.0056 -96.0658 325° Northwest 148 170 8,100 -48 Level Fort Worth Center
Fri 04:46:16 PM 32.0403 -96.0939 326° Northwest 148 170 8,000  Descending Fort Worth Center
Fri 04:47:18 PM 32.0731 -96.1225 324° Northwest 148 170 8,100 48 Climbing Fort Worth Center
Fri 04:48:20 PM 32.1078 -96.1508 325° Northwest 148 170 8,100  Level Fort Worth Center
Fri 04:49:22 PM 32.1403 -96.1786 324° Northwest 148 170 8,100  Level Fort Worth Center
Fri 04:50:24 PM 32.1750 -96.2050 327° Northwest 147 169 8,100 -48 Level Fort Worth Center
Fri 04:51:26 PM 32.2178 -96.2356 329° Northwest 148 170 8,000 -48 Descending Fort Worth Center
Fri 04:52:28 PM 32.2544 -96.2567 334° Northwest 148 170 8,000  Level Fort Worth Center
Fri 04:53:31 PM 32.2947 -96.2819 332° Northwest 148 170 8,000 -48 Level Fort Worth Center
Fri 04:54:33 PM 32.3317 -96.3025 335° Northwest 147 169 7,900 -339 Descending Fort Worth Center
Fri 04:55:35 PM 32.3747 -96.3292 332° Northwest 162 186 7,300 -435 Descending Fort Worth Center
Fri 04:56:37 PM 32.4175 -96.3544 333° Northwest 167 192 7,000 -145 Descending Fort Worth Center
Fri 04:57:39 PM 32.4567 -96.3783 333° Northwest 158 182 7,000 -97 Level Fort Worth Center
Fri 04:58:41 PM 32.4981 -96.4033 333° Northwest 156 180 6,800 -339 Descending Fort Worth Center
Fri 04:59:43 PM 32.5397 -96.4283 333° Northwest 167 192 6,300 -435 Descending Fort Worth Center
Fri 05:00:45 PM 32.5861 -96.4556 334° Northwest 171 197 5,900 -435 Descending Fort Worth Center
Fri 05:01:47 PM 32.6292 -96.4817 333° Northwest 171 197 5,400 -435 Descending Fort Worth Center
Fri 05:02:49 PM 32.6747 -96.5117 331° Northwest 172 198 5,000 -240 Descending Fort Worth Center
Fri 05:03:52 PM 32.7133 -96.5339 334° Northwest 171 197 4,900 -240 Descending Fort Worth Center
Fri 05:04:54 PM 32.7617 -96.5589 336° Northwest 172 198 4,500 -435 Descending Fort Worth Center
Fri 05:05:56 PM 32.8092 -96.5892 332° Northwest 175 201 4,000 -242 Descending Fort Worth Center
Fri 05:06:58 PM 32.8486 -96.6175 329° Northwest 167 192 4,000  Level Fort Worth Center
Fri 05:08:08 PM 32.9000 -96.6500 332° Northwest 161 185 4,000 -138 Level Dallas / Fort Worth TRACON
Fri 05:09:08 PM 32.9333 -96.6833 320° Northwest 168 193 3,700 -500 Descending Dallas / Fort Worth TRACON
Fri 05:10:08 PM 32.9667 -96.7167 320° Northwest 175 201 3,000 -400 Descending Dallas / Fort Worth TRACON
Fri 05:11:08 PM 33.0000 -96.7500 320° Northwest 147 169 2,900 -350 Descending Dallas / Fort Worth TRACON
Fri 05:12:08 PM 33.0333 -96.7833 320° Northwest 147 169 2,300 -700 Descending Dallas / Fort Worth TRACON
Fri 05:13:08 PM 33.0167 -96.8333 248° West 146 168 1,500 -550 Descending Dallas / Fort Worth TRACON
Fri 05:14:08 PM 32.9833 -96.8333 180° South 82 94 1,200 -300 Descending Dallas / Fort Worth TRACON

Login

Don't have an account? Register now (free) for customized features, flight alerts, and more!